sensor_id;sensor_type;location;lat;lon;timestamp;P1;durP1;ratioP1;P2;durP2;ratioP2
52982;SDS011;48698;45.736;13.926;2023-07-20T03:15:00;4.40;;;2.22;;
52982;SDS011;48698;45.736;13.926;2023-07-20T03:20:11;6.32;;;2.67;;
52982;SDS011;48698;45.736;13.926;2023-07-20T03:25:16;6.15;;;2.22;;
52982;SDS011;48698;45.736;13.926;2023-07-20T03:30:20;5.03;;;2.20;;
52982;SDS011;48698;45.736;13.926;2023-07-20T03:35:24;4.80;;;2.17;;
52982;SDS011;48698;45.736;13.926;2023-07-20T03:40:28;5.60;;;2.30;;
52982;SDS011;48698;45.736;13.926;2023-07-20T03:45:31;3.50;;;2.30;;
52982;SDS011;48698;45.736;13.926;2023-07-20T03:50:35;5.10;;;2.13;;
52982;SDS011;48698;45.736;13.926;2023-07-20T03:55:39;7.07;;;2.45;;
52982;SDS011;48698;45.736;13.926;2023-07-20T04:00:47;3.90;;;2.10;;
52982;SDS011;48698;45.736;13.926;2023-07-20T04:05:53;4.22;;;2.20;;
52982;SDS011;48698;45.736;13.926;2023-07-20T04:11:00;5.43;;;2.10;;
52982;SDS011;48698;45.736;13.926;2023-07-20T04:16:05;8.05;;;2.00;;
52982;SDS011;48698;45.736;13.926;2023-07-20T04:21:09;7.00;;;2.30;;
52982;SDS011;48698;45.736;13.926;2023-07-20T04:26:13;5.68;;;2.10;;
52982;SDS011;48698;45.736;13.926;2023-07-20T04:31:17;5.55;;;1.80;;
52982;SDS011;48698;45.736;13.926;2023-07-20T04:36:21;5.40;;;2.20;;
52982;SDS011;48698;45.736;13.926;2023-07-20T04:41:25;5.95;;;1.70;;
52982;SDS011;48698;45.736;13.926;2023-07-20T04:46:29;5.55;;;2.33;;
52982;SDS011;48698;45.736;13.926;2023-07-20T04:51:33;6.85;;;2.15;;
52982;SDS011;48698;45.736;13.926;2023-07-20T04:56:36;4.53;;;1.70;;
52982;SDS011;48698;45.736;13.926;2023-07-20T05:01:40;3.90;;;1.70;;
52982;SDS011;48698;45.736;13.926;2023-07-20T05:06:44;6.22;;;1.83;;
52982;SDS011;48698;45.736;13.926;2023-07-20T05:11:48;4.95;;;2.00;;
52982;SDS011;48698;45.736;13.926;2023-07-20T05:16:51;7.03;;;1.85;;
52982;SDS011;48698;45.736;13.926;2023-07-20T05:21:55;8.38;;;2.05;;
52982;SDS011;48698;45.736;13.926;2023-07-20T05:26:58;5.35;;;1.63;;
52982;SDS011;48698;45.736;13.926;2023-07-20T05:32:02;7.18;;;1.50;;
52982;SDS011;48698;45.736;13.926;2023-07-20T05:37:07;3.40;;;1.35;;
52982;SDS011;48698;45.736;13.926;2023-07-20T05:42:12;3.72;;;1.35;;
52982;SDS011;48698;45.736;13.926;2023-07-20T05:47:15;4.35;;;1.40;;
52982;SDS011;48698;45.736;13.926;2023-07-20T05:52:18;3.88;;;1.27;;
52982;SDS011;48698;45.736;13.926;2023-07-20T05:57:22;5.18;;;1.58;;
52982;SDS011;48698;45.736;13.926;2023-07-20T06:02:26;2.83;;;1.05;;
52982;SDS011;48698;45.736;13.926;2023-07-20T06:07:29;4.13;;;1.23;;
52982;SDS011;48698;45.736;13.926;2023-07-20T06:12:33;2.28;;;1.17;;
52982;SDS011;48698;45.736;13.926;2023-07-20T06:17:36;2.70;;;1.10;;
52982;SDS011;48698;45.736;13.926;2023-07-20T06:22:41;2.28;;;0.98;;
52982;SDS011;48698;45.736;13.926;2023-07-20T06:27:45;4.85;;;1.40;;
52982;SDS011;48698;45.736;13.926;2023-07-20T06:32:48;6.07;;;1.55;;
52982;SDS011;48698;45.736;13.926;2023-07-20T06:37:52;6.53;;;1.60;;
52982;SDS011;48698;45.736;13.926;2023-07-20T06:42:55;6.05;;;1.40;;
52982;SDS011;48698;45.736;13.926;2023-07-20T06:48:02;3.50;;;1.38;;
52982;SDS011;48698;45.736;13.926;2023-07-20T06:53:07;5.85;;;1.45;;
52982;SDS011;48698;45.736;13.926;2023-07-20T06:58:11;4.88;;;1.50;;
52982;SDS011;48698;45.736;13.926;2023-07-20T07:03:14;4.63;;;1.30;;
52982;SDS011;48698;45.736;13.926;2023-07-20T07:08:18;4.22;;;1.55;;
52982;SDS011;48698;45.736;13.926;2023-07-20T07:13:22;5.85;;;1.30;;
52982;SDS011;48698;45.736;13.926;2023-07-20T07:18:26;4.57;;;1.50;;
52982;SDS011;48698;45.736;13.926;2023-07-20T07:28:33;5.82;;;1.40;;
52982;SDS011;48698;45.736;13.926;2023-07-20T07:38:40;4.28;;;1.40;;
52982;SDS011;48698;45.736;13.926;2023-07-20T07:43:46;2.83;;;1.45;;
52982;SDS011;48698;45.736;13.926;2023-07-20T07:48:50;5.68;;;1.40;;
52982;SDS011;48698;45.736;13.926;2023-07-20T07:53:54;2.17;;;1.40;;
52982;SDS011;48698;45.736;13.926;2023-07-20T07:58:57;3.33;;;1.60;;
52982;SDS011;48698;45.736;13.926;2023-07-20T08:04:01;2.22;;;1.40;;
52982;SDS011;48698;45.736;13.926;2023-07-20T08:09:05;5.07;;;1.70;;
52982;SDS011;48698;45.736;13.926;2023-07-20T08:14:08;4.45;;;1.80;;
52982;SDS011;48698;45.736;13.926;2023-07-20T08:19:12;4.22;;;1.60;;
52982;SDS011;48698;45.736;13.926;2023-07-20T08:24:15;5.60;;;1.98;;
52982;SDS011;48698;45.736;13.926;2023-07-20T08:29:19;4.55;;;2.08;;
52982;SDS011;48698;45.736;13.926;2023-07-20T08:34:22;3.70;;;1.70;;
52982;SDS011;48698;45.736;13.926;2023-07-20T08:39:33;4.95;;;1.90;;
52982;SDS011;48698;45.736;13.926;2023-07-20T08:44:38;3.55;;;1.95;;
52982;SDS011;48698;45.736;13.926;2023-07-20T08:49:43;3.70;;;2.03;;
52982;SDS011;48698;45.736;13.926;2023-07-20T08:54:47;4.90;;;2.15;;
52982;SDS011;48698;45.736;13.926;2023-07-20T08:59:52;3.58;;;2.00;;
52982;SDS011;48698;45.736;13.926;2023-07-20T09:04:56;3.97;;;2.15;;
52982;SDS011;48698;45.736;13.926;2023-07-20T09:10:00;4.13;;;2.35;;
52982;SDS011;48698;45.736;13.926;2023-07-20T09:15:09;4.18;;;2.20;;
52982;SDS011;48698;45.736;13.926;2023-07-20T09:20:15;3.53;;;2.20;;
52982;SDS011;48698;45.736;13.926;2023-07-20T09:25:25;3.20;;;2.42;;
52982;SDS011;48698;45.736;13.926;2023-07-20T09:30:32;6.03;;;2.40;;
52982;SDS011;48698;45.736;13.926;2023-07-20T09:35:36;3.75;;;2.13;;
52982;SDS011;48698;45.736;13.926;2023-07-20T09:40:45;5.53;;;2.17;;
52982;SDS011;48698;45.736;13.926;2023-07-20T09:50:40;3.03;;;2.10;;
52982;SDS011;48698;45.736;13.926;2023-07-20T09:55:45;5.85;;;2.25;;
52982;SDS011;48698;45.736;13.926;2023-07-20T10:00:53;3.90;;;2.30;;
52982;SDS011;48698;45.736;13.926;2023-07-20T10:06:02;5.20;;;2.40;;
52982;SDS011;48698;45.736;13.926;2023-07-20T10:11:12;5.07;;;2.00;;
52982;SDS011;48698;45.736;13.926;2023-07-20T10:16:22;3.85;;;2.22;;
52982;SDS011;48698;45.736;13.926;2023-07-20T10:21:30;3.33;;;2.10;;
52982;SDS011;48698;45.736;13.926;2023-07-20T11:55:05;3.67;;;2.30;;
52982;SDS011;48698;45.736;13.926;2023-07-20T12:00:10;4.65;;;2.20;;
52982;SDS011;48698;45.736;13.926;2023-07-20T12:05:16;2.70;;;1.77;;
52982;SDS011;48698;45.736;13.926;2023-07-20T12:15:14;3.67;;;2.20;;
52982;SDS011;48698;45.736;13.926;2023-07-20T12:25:14;5.70;;;2.10;;
52982;SDS011;48698;45.736;13.926;2023-07-20T12:35:12;4.35;;;2.75;;
52982;SDS011;48698;45.736;13.926;2023-07-20T12:45:02;4.53;;;2.80;;
52982;SDS011;48698;45.736;13.926;2023-07-20T12:50:07;5.78;;;2.60;;
52982;SDS011;48698;45.736;13.926;2023-07-20T12:55:11;6.30;;;2.55;;
52982;SDS011;48698;45.736;13.926;2023-07-20T13:00:15;6.40;;;2.10;;
52982;SDS011;48698;45.736;13.926;2023-07-20T13:05:21;5.47;;;2.38;;
52982;SDS011;48698;45.736;13.926;2023-07-20T13:10:45;5.28;;;2.20;;
52982;SDS011;48698;45.736;13.926;2023-07-20T13:15:48;5.72;;;2.55;;
52982;SDS011;48698;45.736;13.926;2023-07-20T13:20:53;4.53;;;2.30;;
52982;SDS011;48698;45.736;13.926;2023-07-20T13:25:57;7.57;;;2.70;;
52982;SDS011;48698;45.736;13.926;2023-07-20T13:31:01;4.25;;;2.40;;
52982;SDS011;48698;45.736;13.926;2023-07-20T13:36:05;6.55;;;2.40;;
52982;SDS011;48698;45.736;13.926;2023-07-20T13:41:11;6.30;;;2.83;;
52982;SDS011;48698;45.736;13.926;2023-07-20T13:46:15;7.55;;;2.60;;
52982;SDS011;48698;45.736;13.926;2023-07-20T13:51:38;6.40;;;2.45;;
52982;SDS011;48698;45.736;13.926;2023-07-20T13:56:42;7.20;;;2.92;;
52982;SDS011;48698;45.736;13.926;2023-07-20T14:01:45;4.97;;;2.22;;
52982;SDS011;48698;45.736;13.926;2023-07-20T14:06:49;6.55;;;2.42;;
52982;SDS011;48698;45.736;13.926;2023-07-20T14:11:55;6.55;;;2.67;;
52982;SDS011;48698;45.736;13.926;2023-07-20T14:17:01;7.07;;;2.90;;
52982;SDS011;48698;45.736;13.926;2023-07-20T14:22:05;5.53;;;2.60;;
52982;SDS011;48698;45.736;13.926;2023-07-20T14:27:08;6.82;;;2.67;;
52982;SDS011;48698;45.736;13.926;2023-07-20T14:32:12;8.20;;;3.00;;
52982;SDS011;48698;45.736;13.926;2023-07-20T14:37:16;8.80;;;3.05;;
52982;SDS011;48698;45.736;13.926;2023-07-20T14:42:19;8.38;;;3.15;;
52982;SDS011;48698;45.736;13.926;2023-07-20T14:47:23;8.48;;;3.22;;
52982;SDS011;48698;45.736;13.926;2023-07-20T14:52:27;7.28;;;3.03;;
52982;SDS011;48698;45.736;13.926;2023-07-20T14:57:31;6.93;;;3.15;;
52982;SDS011;48698;45.736;13.926;2023-07-20T15:02:34;9.48;;;3.97;;
52982;SDS011;48698;45.736;13.926;2023-07-20T15:07:38;7.63;;;3.30;;
52982;SDS011;48698;45.736;13.926;2023-07-20T15:12:42;8.50;;;3.05;;
52982;SDS011;48698;45.736;13.926;2023-07-20T15:17:46;11.20;;;3.33;;
52982;SDS011;48698;45.736;13.926;2023-07-20T15:22:49;6.15;;;3.13;;
52982;SDS011;48698;45.736;13.926;2023-07-20T15:27:53;6.65;;;3.03;;
52982;SDS011;48698;45.736;13.926;2023-07-20T15:37:37;8.80;;;2.80;;
52982;SDS011;48698;45.736;13.926;2023-07-20T15:42:41;5.93;;;3.50;;
52982;SDS011;48698;45.736;13.926;2023-07-20T15:47:44;10.75;;;3.40;;
52982;SDS011;48698;45.736;13.926;2023-07-20T15:52:48;9.25;;;3.50;;
52982;SDS011;48698;45.736;13.926;2023-07-20T15:57:52;9.70;;;3.30;;
52982;SDS011;48698;45.736;13.926;2023-07-20T16:02:56;7.93;;;4.88;;
52982;SDS011;48698;45.736;13.926;2023-07-20T16:07:59;11.00;;;3.22;;
52982;SDS011;48698;45.736;13.926;2023-07-20T16:13:03;7.70;;;3.30;;
52982;SDS011;48698;45.736;13.926;2023-07-20T16:18:07;8.30;;;3.05;;
52982;SDS011;48698;45.736;13.926;2023-07-20T16:23:11;9.48;;;3.58;;
52982;SDS011;48698;45.736;13.926;2023-07-20T16:28:15;7.22;;;3.50;;
52982;SDS011;48698;45.736;13.926;2023-07-20T16:33:19;8.48;;;3.50;;
52982;SDS011;48698;45.736;13.926;2023-07-20T16:38:22;9.88;;;3.22;;
52982;SDS011;48698;45.736;13.926;2023-07-20T16:43:26;10.60;;;4.43;;
52982;SDS011;48698;45.736;13.926;2023-07-20T16:48:32;7.95;;;3.40;;
52982;SDS011;48698;45.736;13.926;2023-07-20T16:53:56;7.88;;;3.60;;
52982;SDS011;48698;45.736;13.926;2023-07-20T16:58:59;11.23;;;3.30;;
52982;SDS011;48698;45.736;13.926;2023-07-20T17:04:03;10.52;;;3.80;;
52982;SDS011;48698;45.736;13.926;2023-07-20T17:09:06;7.20;;;3.53;;
52982;SDS011;48698;45.736;13.926;2023-07-20T17:14:11;10.07;;;3.95;;
52982;SDS011;48698;45.736;13.926;2023-07-20T17:19:15;7.72;;;3.80;;
52982;SDS011;48698;45.736;13.926;2023-07-20T17:24:19;10.88;;;3.65;;
52982;SDS011;48698;45.736;13.926;2023-07-20T17:29:25;9.70;;;3.25;;
52982;SDS011;48698;45.736;13.926;2023-07-20T17:34:28;9.43;;;3.85;;
52982;SDS011;48698;45.736;13.926;2023-07-20T17:39:32;11.07;;;4.20;;
52982;SDS011;48698;45.736;13.926;2023-07-20T17:50:45;10.77;;;3.90;;
52982;SDS011;48698;45.736;13.926;2023-07-20T17:55:48;9.98;;;3.97;;
52982;SDS011;48698;45.736;13.926;2023-07-20T18:00:51;19.05;;;4.13;;
52982;SDS011;48698;45.736;13.926;2023-07-20T18:05:55;10.88;;;3.80;;
52982;SDS011;48698;45.736;13.926;2023-07-20T18:24:51;10.35;;;4.57;;
52982;SDS011;48698;45.736;13.926;2023-07-20T18:29:55;11.45;;;4.60;;
52982;SDS011;48698;45.736;13.926;2023-07-20T18:34:59;14.02;;;4.72;;
52982;SDS011;48698;45.736;13.926;2023-07-20T18:40:03;10.55;;;4.45;;
52982;SDS011;48698;45.736;13.926;2023-07-20T18:45:07;10.45;;;4.75;;
52982;SDS011;48698;45.736;13.926;2023-07-20T18:50:11;8.90;;;4.60;;
52982;SDS011;48698;45.736;13.926;2023-07-20T18:55:15;12.07;;;5.50;;
52982;SDS011;48698;45.736;13.926;2023-07-20T19:00:19;9.70;;;4.90;;
52982;SDS011;48698;45.736;13.926;2023-07-20T19:05:22;9.45;;;5.53;;
52982;SDS011;48698;45.736;13.926;2023-07-20T19:10:27;12.60;;;6.45;;
52982;SDS011;48698;45.736;13.926;2023-07-20T19:15:52;10.82;;;5.72;;
52982;SDS011;48698;45.736;13.926;2023-07-20T19:20:59;11.50;;;5.78;;
52982;SDS011;48698;45.736;13.926;2023-07-20T19:26:05;11.38;;;5.60;;
52982;SDS011;48698;45.736;13.926;2023-07-20T19:31:09;12.55;;;6.10;;
52982;SDS011;48698;45.736;13.926;2023-07-20T19:36:13;8.00;;;5.72;;
52982;SDS011;48698;45.736;13.926;2023-07-20T19:41:16;8.73;;;6.40;;
52982;SDS011;48698;45.736;13.926;2023-07-20T19:46:20;11.73;;;6.22;;
52982;SDS011;48698;45.736;13.926;2023-07-20T19:51:23;9.02;;;4.55;;
52982;SDS011;48698;45.736;13.926;2023-07-20T19:56:27;4.65;;;3.45;;
52982;SDS011;48698;45.736;13.926;2023-07-20T20:01:31;5.68;;;3.50;;
52982;SDS011;48698;45.736;13.926;2023-07-20T20:06:38;5.05;;;3.63;;
52982;SDS011;48698;45.736;13.926;2023-07-20T20:11:43;7.10;;;3.78;;
52982;SDS011;48698;45.736;13.926;2023-07-20T20:16:49;6.70;;;3.53;;
52982;SDS011;48698;45.736;13.926;2023-07-20T20:21:54;6.07;;;3.60;;
52982;SDS011;48698;45.736;13.926;2023-07-20T20:27:04;7.50;;;3.55;;
52982;SDS011;48698;45.736;13.926;2023-07-20T20:32:07;5.18;;;3.42;;
52982;SDS011;48698;45.736;13.926;2023-07-20T20:37:13;6.50;;;3.70;;
52982;SDS011;48698;45.736;13.926;2023-07-20T20:42:17;7.75;;;3.60;;
52982;SDS011;48698;45.736;13.926;2023-07-20T20:47:21;5.68;;;3.50;;
52982;SDS011;48698;45.736;13.926;2023-07-20T20:57:28;7.53;;;3.57;;
52982;SDS011;48698;45.736;13.926;2023-07-20T21:02:32;8.10;;;3.50;;
52982;SDS011;48698;45.736;13.926;2023-07-20T21:07:36;5.63;;;3.40;;
52982;SDS011;48698;45.736;13.926;2023-07-20T21:12:41;5.32;;;3.75;;
52982;SDS011;48698;45.736;13.926;2023-07-20T21:17:45;6.75;;;3.85;;
52982;SDS011;48698;45.736;13.926;2023-07-20T21:22:49;5.55;;;3.65;;
52982;SDS011;48698;45.736;13.926;2023-07-20T21:27:53;4.93;;;3.55;;
52982;SDS011;48698;45.736;13.926;2023-07-20T21:32:56;5.47;;;3.47;;
52982;SDS011;48698;45.736;13.926;2023-07-20T21:38:01;8.05;;;3.70;;
52982;SDS011;48698;45.736;13.926;2023-07-20T21:43:04;8.60;;;4.00;;
52982;SDS011;48698;45.736;13.926;2023-07-20T21:48:08;6.38;;;3.95;;
52982;SDS011;48698;45.736;13.926;2023-07-20T21:53:11;4.30;;;3.50;;
52982;SDS011;48698;45.736;13.926;2023-07-20T22:03:22;4.75;;;3.63;;
52982;SDS011;48698;45.736;13.926;2023-07-20T22:08:25;8.02;;;4.07;;
52982;SDS011;48698;45.736;13.926;2023-07-20T22:13:30;10.88;;;3.92;;
52982;SDS011;48698;45.736;13.926;2023-07-20T22:18:33;6.25;;;3.70;;
52982;SDS011;48698;45.736;13.926;2023-07-20T22:23:38;7.32;;;4.05;;
52982;SDS011;48698;45.736;13.926;2023-07-20T22:28:42;7.03;;;4.10;;
52982;SDS011;48698;45.736;13.926;2023-07-20T22:33:49;7.03;;;3.70;;
52982;SDS011;48698;45.736;13.926;2023-07-20T22:38:53;6.55;;;3.47;;
52982;SDS011;48698;45.736;13.926;2023-07-20T22:43:57;6.82;;;3.33;;
52982;SDS011;48698;45.736;13.926;2023-07-20T22:54:04;5.10;;;3.47;;
52982;SDS011;48698;45.736;13.926;2023-07-20T22:59:07;5.30;;;3.55;;
52982;SDS011;48698;45.736;13.926;2023-07-20T23:04:12;5.25;;;3.33;;
52982;SDS011;48698;45.736;13.926;2023-07-20T23:09:16;6.00;;;3.60;;
52982;SDS011;48698;45.736;13.926;2023-07-20T23:14:21;4.45;;;3.00;;
52982;SDS011;48698;45.736;13.926;2023-07-20T23:19:24;5.63;;;3.13;;
52982;SDS011;48698;45.736;13.926;2023-07-20T23:24:30;4.53;;;3.17;;
52982;SDS011;48698;45.736;13.926;2023-07-20T23:29:34;5.43;;;3.42;;
52982;SDS011;48698;45.736;13.926;2023-07-20T23:34:37;3.75;;;2.90;;
52982;SDS011;48698;45.736;13.926;2023-07-20T23:39:41;6.18;;;2.92;;
52982;SDS011;48698;45.736;13.926;2023-07-20T23:44:46;6.30;;;3.20;;
52982;SDS011;48698;45.736;13.926;2023-07-20T23:49:49;5.10;;;3.00;;
52982;SDS011;48698;45.736;13.926;2023-07-20T23:54:53;4.53;;;3.10;;
52982;SDS011;48698;45.736;13.926;2023-07-20T23:59:56;4.60;;;3.00;;
